createdAt,value
2019-02-28T00:00:56.274Z,30.37
2019-02-28T00:03:27.242Z,29.13
2019-02-28T00:05:55.838Z,27.63
2019-02-28T00:08:24.184Z,28.10
2019-02-28T00:10:52.526Z,28.50
2019-02-28T00:13:22.432Z,28.63
2019-02-28T00:15:51.178Z,28.73
2019-02-28T00:18:19.524Z,28.80
2019-02-28T00:20:47.890Z,28.37
2019-02-28T00:23:16.221Z,28.63
2019-02-28T00:25:44.587Z,29.40
2019-02-28T00:28:12.917Z,27.47
2019-02-28T00:30:41.602Z,27.87
2019-02-28T00:33:10.093Z,27.33
2019-02-28T00:35:38.443Z,27.07
2019-02-28T00:38:06.886Z,28.07
2019-02-28T00:40:38.534Z,26.63
2019-02-28T00:43:05.298Z,27.63
2019-02-28T00:45:37.223Z,29.23
2019-02-28T00:48:04.474Z,27.43
2019-02-28T00:50:32.815Z,27.23
2019-02-28T00:53:01.495Z,27.77
2019-02-28T00:55:30.279Z,27.20
2019-02-28T00:57:58.706Z,26.17
2019-02-28T01:00:27.062Z,27.70
2019-02-28T01:02:55.405Z,29.40
2019-02-28T01:05:23.749Z,25.93
2019-02-28T01:07:52.105Z,27.13
2019-02-28T01:10:20.447Z,27.23
2019-02-28T01:12:53.247Z,27.90
2019-02-28T01:15:18.860Z,28.73
2019-02-28T01:17:47.227Z,29.50
2019-02-28T01:20:16.793Z,28.63
2019-02-28T01:22:45.378Z,27.77
2019-02-28T01:25:15.347Z,29.13
2019-02-28T01:27:43.702Z,28.13
2019-02-28T01:30:15.210Z,30.23
2019-02-28T01:32:43.554Z,27.30
2019-02-28T01:35:11.910Z,29.90
2019-02-28T01:37:40.253Z,29.10
2019-02-28T01:40:09.378Z,29.67
2019-02-28T01:42:37.745Z,29.10
2019-02-28T01:45:09.953Z,30.10
2019-02-28T01:47:38.025Z,31.43
2019-02-28T01:50:07.446Z,26.10
2019-02-28T01:52:35.798Z,29.10
2019-02-28T01:55:04.812Z,27.10
2019-02-28T01:57:33.156Z,30.43
2019-02-28T02:00:01.507Z,32.93
2019-02-28T02:02:29.935Z,31.20
2019-02-28T02:04:58.286Z,30.00
2019-02-28T02:07:26.646Z,31.07
2019-02-28T02:09:55.006Z,31.47
2019-02-28T02:12:23.349Z,31.73
2019-02-28T02:14:51.990Z,32.33
2019-02-28T02:17:20.338Z,31.70
2019-02-28T02:19:49.369Z,31.20
2019-02-28T02:22:17.889Z,31.30
2019-02-28T02:24:46.237Z,31.40
2019-02-28T02:27:16.333Z,30.93
2019-02-28T02:29:44.637Z,30.80
2019-02-28T02:32:12.995Z,30.63
2019-02-28T02:34:41.339Z,32.50
2019-02-28T02:37:09.691Z,32.80
2019-02-28T02:39:38.040Z,30.30
2019-02-28T02:42:10.417Z,33.00
2019-02-28T02:44:36.727Z,33.73
2019-02-28T02:47:05.084Z,33.87
2019-02-28T02:49:33.442Z,35.43
2019-02-28T02:52:01.784Z,30.47
2019-02-28T02:54:30.125Z,35.00
2019-02-28T02:56:58.461Z,33.27
2019-02-28T02:59:26.819Z,33.83
2019-02-28T03:01:56.232Z,35.03
2019-02-28T03:04:25.218Z,35.83
2019-02-28T03:06:53.556Z,32.50
2019-02-28T03:09:21.910Z,33.70
2019-02-28T03:11:50.274Z,32.87
2019-02-28T03:14:18.686Z,32.10
2019-02-28T03:16:47.037Z,33.60
2019-02-28T03:19:15.384Z,31.40
2019-02-28T03:21:51.643Z,34.63
2019-02-28T03:24:16.282Z,33.27
2019-02-28T03:26:45.077Z,35.30
2019-02-28T03:29:13.419Z,32.83
2019-02-28T03:31:41.766Z,33.37
2019-02-28T03:34:13.759Z,34.03
2019-02-28T03:36:40.186Z,31.20
2019-02-28T03:39:08.531Z,33.13
2019-02-28T03:41:36.909Z,32.73
2019-02-28T03:44:05.257Z,30.87
2019-02-28T03:46:33.622Z,32.50
2019-02-28T03:49:01.967Z,33.20
2019-02-28T03:51:30.324Z,33.13
2019-02-28T03:53:58.665Z,33.97
2019-02-28T03:56:27.020Z,35.10
2019-02-28T03:58:56.446Z,33.97
2019-02-28T04:01:24.789Z,35.63
2019-02-28T04:03:53.142Z,36.33
2019-02-28T04:06:22.462Z,34.63
2019-02-28T04:08:51.702Z,33.83
2019-02-28T04:11:20.058Z,32.80
2019-02-28T04:13:52.362Z,30.57
2019-02-28T04:16:18.475Z,33.43
2019-02-28T04:18:46.918Z,33.20
2019-02-28T04:21:15.338Z,33.20
2019-02-28T04:23:43.698Z,31.73
2019-02-28T04:26:12.038Z,33.37
2019-02-28T04:28:40.452Z,30.50
2019-02-28T04:31:08.826Z,30.03
2019-02-28T04:33:39.128Z,31.90
2019-02-28T04:36:07.210Z,32.50
2019-02-28T04:38:35.558Z,31.27
2019-02-28T04:41:06.259Z,32.13
2019-02-28T04:43:34.604Z,30.93
2019-02-28T04:46:02.965Z,32.23
2019-02-28T04:48:31.318Z,33.40
2019-02-28T04:51:02.324Z,31.80
2019-02-28T04:53:29.760Z,33.27
2019-02-28T04:55:58.116Z,30.83
2019-02-28T04:58:26.461Z,32.33
2019-02-28T05:00:54.851Z,33.60
2019-02-28T05:03:27.911Z,33.13
2019-02-28T05:05:53.265Z,31.83
2019-02-28T05:08:21.614Z,34.37
2019-02-28T05:10:49.963Z,31.20
2019-02-28T05:13:18.315Z,30.23
2019-02-28T05:15:46.668Z,31.87
2019-02-28T05:18:15.022Z,32.07
2019-02-28T05:20:45.942Z,32.33
2019-02-28T05:23:13.437Z,33.70
2019-02-28T05:25:41.798Z,32.90
2019-02-28T05:28:10.144Z,34.07
2019-02-28T05:30:38.494Z,31.97
2019-02-28T05:33:07.454Z,34.07
2019-02-28T05:35:36.077Z,35.47
2019-02-28T05:38:04.417Z,33.47
2019-02-28T05:40:32.780Z,34.03
2019-02-28T05:43:01.116Z,34.67
2019-02-28T05:45:29.463Z,34.57
2019-02-28T05:47:57.826Z,35.47
2019-02-28T05:50:26.166Z,35.67
2019-02-28T05:52:54.523Z,36.47
2019-02-28T05:55:25.629Z,34.13
2019-02-28T05:57:52.916Z,34.93
2019-02-28T06:00:22.912Z,34.37
2019-02-28T06:02:51.245Z,32.03
2019-02-28T06:05:19.589Z,33.93
2019-02-28T06:07:47.941Z,31.40
2019-02-28T06:10:16.277Z,33.73
2019-02-28T06:12:45.059Z,35.77
2019-02-28T06:15:14.546Z,33.43
2019-02-28T06:17:42.901Z,33.90
2019-02-28T06:20:11.664Z,35.43
2019-02-28T06:22:41.069Z,38.87
2019-02-28T06:25:10.249Z,38.00
2019-02-28T06:27:41.843Z,37.53
2019-02-28T06:30:15.118Z,35.73
2019-02-28T06:32:44.652Z,36.13
2019-02-28T06:35:16.118Z,35.13
2019-02-28T06:37:43.115Z,35.53
2019-02-28T06:40:14.312Z,36.43
2019-02-28T06:42:43.441Z,35.23
2019-02-28T06:45:17.824Z,36.50
2019-02-28T06:47:49.740Z,35.00
2019-02-28T06:50:16.462Z,37.90
2019-02-28T06:52:46.906Z,34.27
2019-02-28T06:55:22.813Z,36.43
2019-02-28T06:57:51.157Z,36.17
2019-02-28T07:00:19.513Z,34.50
2019-02-28T07:02:49.973Z,35.10
2019-02-28T07:05:17.909Z,34.80
2019-02-28T07:07:49.044Z,38.37
2019-02-28T07:10:17.970Z,39.83
2019-02-28T07:12:46.312Z,39.27
2019-02-28T07:15:17.134Z,31.33
2019-02-28T07:17:48.253Z,35.40
2019-02-28T07:20:22.570Z,35.03
2019-02-28T07:22:55.514Z,36.13
2019-02-28T07:25:23.711Z,33.40
2019-02-28T07:27:52.738Z,32.73
2019-02-28T07:30:21.073Z,37.80
2019-02-28T07:32:49.457Z,39.50
2019-02-28T07:35:17.831Z,39.40
2019-02-28T07:37:46.188Z,33.53
2019-02-28T07:40:16.390Z,40.77
2019-02-28T07:42:45.897Z,38.53
2019-02-28T07:45:14.585Z,42.73
2019-02-28T07:47:42.935Z,44.50
2019-02-28T07:50:12.913Z,40.73
2019-02-28T07:52:41.263Z,41.60
2019-02-28T07:55:11.249Z,41.27
2019-02-28T07:57:39.658Z,42.90
2019-02-28T08:00:09.712Z,38.43
2019-02-28T08:02:39.269Z,36.53
2019-02-28T08:05:09.865Z,38.37
2019-02-28T08:07:38.204Z,45.47
2019-02-28T08:10:08.190Z,45.07
2019-02-28T08:12:39.562Z,31.93
2019-02-28T08:15:09.282Z,39.63
2019-02-28T08:17:40.632Z,34.33
2019-02-28T08:20:07.857Z,45.93
2019-02-28T08:22:37.165Z,45.03
2019-02-28T08:25:09.790Z,41.57
2019-02-28T08:27:38.130Z,45.43
2019-02-28T08:30:08.103Z,46.07
2019-02-28T08:32:36.451Z,39.07
2019-02-28T08:35:07.001Z,44.90
2019-02-28T08:37:36.751Z,43.77
2019-02-28T08:40:06.702Z,44.13
2019-02-28T08:42:38.473Z,41.47
2019-02-28T08:45:06.658Z,46.57
2019-02-28T08:47:37.889Z,46.47
2019-02-28T08:50:19.048Z,52.23
2019-02-28T08:52:43.662Z,39.93
2019-02-28T08:55:13.374Z,51.57
2019-02-28T08:57:41.730Z,48.27
2019-02-28T09:00:18.190Z,34.60
2019-02-28T09:02:52.975Z,50.17
2019-02-28T09:05:25.424Z,24.27
2019-02-28T09:07:51.350Z,49.50
2019-02-28T09:10:21.121Z,38.87
2019-02-28T09:12:49.480Z,49.77
2019-02-28T09:15:17.898Z,52.60
2019-02-28T09:17:46.322Z,46.73
2019-02-28T09:20:14.924Z,46.07
2019-02-28T09:22:43.288Z,50.27
2019-02-28T09:25:13.185Z,44.37
2019-02-28T09:27:44.376Z,50.17
2019-02-28T09:30:32.727Z,50.13
2019-02-28T09:33:01.074Z,48.73
2019-02-28T09:35:29.440Z,51.70
2019-02-28T09:37:57.788Z,53.53
2019-02-28T09:40:29.504Z,52.13
2019-02-28T09:42:57.826Z,47.57
2019-02-28T09:45:27.258Z,54.73
2019-02-28T09:48:00.850Z,50.63
2019-02-28T09:50:28.418Z,50.03
2019-02-28T09:52:56.778Z,49.03
2019-02-28T09:55:25.138Z,47.10
2019-02-28T09:57:54.712Z,45.63
2019-02-28T10:00:27.775Z,50.43
2019-02-28T10:02:56.221Z,50.97
2019-02-28T10:05:24.889Z,47.73
2019-02-28T10:07:53.246Z,46.97
2019-02-28T10:10:26.200Z,52.93
2019-02-28T10:12:56.878Z,52.87
2019-02-28T10:15:25.571Z,47.47
2019-02-28T10:17:55.151Z,40.20
2019-02-28T10:20:28.515Z,53.60
2019-02-28T10:22:57.107Z,59.30
2019-02-28T10:25:30.027Z,60.60
2019-02-28T10:28:01.654Z,45.93
2019-02-28T10:30:32.294Z,58.47
2019-02-28T10:32:59.773Z,55.03
2019-02-28T10:35:33.486Z,34.77
2019-02-28T10:38:04.222Z,28.30
2019-02-28T10:40:32.579Z,57.07
2019-02-28T10:43:02.817Z,42.27
2019-02-28T10:45:31.180Z,47.73
2019-02-28T10:48:02.958Z,54.67
2019-02-28T10:50:33.361Z,52.10
2019-02-28T10:53:05.506Z,50.63
2019-02-28T10:55:31.578Z,41.10
2019-02-28T10:57:59.992Z,43.13
2019-02-28T11:00:32.757Z,60.63
2019-02-28T11:03:01.670Z,54.30
2019-02-28T11:05:38.591Z,53.37
2019-02-28T11:08:09.706Z,57.37
2019-02-28T11:10:39.737Z,55.60
2019-02-28T11:13:09.654Z,54.90
2019-02-28T11:15:38.160Z,61.27
2019-02-28T11:18:09.764Z,50.37
2019-02-28T11:20:38.361Z,40.93
2019-02-28T11:23:07.750Z,49.60
2019-02-28T11:25:38.655Z,56.67
2019-02-28T11:28:07.024Z,49.00
2019-02-28T11:30:36.137Z,47.80
2019-02-28T11:33:05.376Z,47.33
2019-02-28T11:35:33.714Z,37.00
2019-02-28T11:38:04.903Z,47.33
2019-02-28T11:40:35.726Z,43.20
2019-02-28T11:43:04.510Z,47.73
2019-02-28T11:45:36.699Z,40.10
2019-02-28T11:48:12.929Z,49.93
2019-02-28T11:50:44.733Z,41.57
2019-02-28T11:53:11.669Z,48.53
2019-02-28T11:55:41.969Z,26.40
2019-02-28T11:58:16.613Z,32.70
2019-02-28T12:01:30.474Z,44.53
2019-02-28T12:03:13.834Z,39.07
2019-02-28T12:05:43.165Z,31.67
2019-02-28T12:08:13.686Z,33.87
2019-02-28T12:10:43.223Z,42.10
2019-02-28T12:13:12.628Z,48.30
2019-02-28T12:15:41.924Z,45.97
2019-02-28T12:18:12.449Z,54.10
2019-02-28T12:20:43.114Z,29.63
2019-02-28T12:23:11.487Z,52.37
2019-02-28T12:25:43.646Z,47.40
2019-02-28T12:28:12.134Z,27.60
2019-02-28T12:30:42.112Z,27.20
2019-02-28T12:33:10.463Z,45.13
2019-02-28T12:35:40.658Z,31.37
2019-02-28T12:38:09.317Z,40.33
2019-02-28T12:40:39.035Z,31.70
2019-02-28T12:43:09.585Z,46.97
2019-02-28T12:45:39.259Z,43.70
2019-02-28T12:48:08.443Z,47.20
2019-02-28T12:50:38.229Z,24.70
2019-02-28T12:53:06.564Z,45.13
2019-02-28T12:55:35.403Z,37.23
2019-02-28T12:58:04.975Z,40.13
2019-02-28T13:00:39.688Z,29.10
2019-02-28T13:03:09.245Z,48.83
2019-02-28T13:05:37.818Z,35.87
2019-02-28T13:08:07.794Z,33.17
2019-02-28T13:10:36.418Z,39.20
2019-02-28T13:13:07.201Z,37.63
2019-02-28T13:15:35.172Z,29.73
2019-02-28T13:18:07.514Z,25.87
2019-02-28T13:20:36.439Z,23.27
2019-02-28T13:23:04.370Z,20.13
2019-02-28T13:25:32.701Z,21.37
2019-02-28T13:28:01.126Z,16.60
2019-02-28T13:30:29.775Z,16.07
2019-02-28T13:32:58.127Z,17.37
2019-02-28T13:35:30.426Z,14.10
2019-02-28T13:37:58.776Z,13.87
2019-02-28T13:40:28.356Z,16.73
2019-02-28T13:42:56.908Z,14.13
2019-02-28T13:45:25.260Z,13.73
2019-02-28T13:47:53.615Z,12.07
2019-02-28T13:50:25.911Z,13.67
2019-02-28T13:52:53.774Z,12.53
2019-02-28T13:55:22.146Z,12.10
2019-02-28T13:57:51.635Z,10.93
2019-02-28T14:00:25.413Z,10.00
2019-02-28T14:02:54.629Z,10.67
2019-02-28T14:05:22.981Z,12.33
2019-02-28T14:07:51.317Z,11.10
2019-02-28T14:10:20.933Z,9.90
2019-02-28T14:12:49.261Z,9.83
2019-02-28T14:15:19.231Z,9.73
2019-02-28T14:17:47.642Z,7.13
2019-02-28T14:20:17.261Z,8.53
2019-02-28T14:22:46.569Z,7.97
2019-02-28T14:25:15.420Z,8.77
2019-02-28T14:27:43.753Z,7.50
2019-02-28T14:30:13.713Z,7.63
2019-02-28T14:32:45.413Z,8.13
2019-02-28T14:35:22.717Z,7.13
2019-02-28T14:37:51.771Z,6.13
2019-02-28T14:40:21.009Z,5.23
2019-02-28T14:42:49.350Z,5.53
2019-02-28T14:45:20.453Z,4.73
2019-02-28T14:47:57.083Z,5.50
2019-02-28T14:50:21.773Z,4.33
2019-02-28T14:52:51.758Z,5.03
2019-02-28T14:55:21.547Z,4.83
2019-02-28T14:57:49.962Z,4.33
2019-02-28T15:00:20.907Z,4.27
2019-02-28T15:02:50.707Z,4.17
2019-02-28T15:05:21.543Z,4.60
2019-02-28T15:07:50.088Z,4.07
2019-02-28T15:10:22.886Z,4.60
2019-02-28T15:12:55.395Z,4.30
2019-02-28T15:15:22.664Z,4.47
2019-02-28T15:17:52.854Z,5.73
2019-02-28T15:20:24.170Z,5.03
2019-02-28T15:22:55.798Z,5.10
2019-02-28T15:25:25.053Z,4.60
2019-02-28T15:27:53.401Z,5.20
2019-02-28T15:30:38.535Z,4.43
2019-02-28T15:33:06.873Z,4.57
2019-02-28T15:35:35.206Z,4.37
2019-02-28T15:38:05.853Z,4.43
2019-02-28T15:40:37.737Z,4.90
2019-02-28T15:43:06.070Z,4.47
2019-02-28T15:45:37.379Z,5.87
2019-02-28T15:48:05.882Z,4.70
2019-02-28T15:50:34.238Z,4.43
2019-02-28T15:53:03.823Z,4.00
2019-02-28T15:55:35.305Z,4.50
2019-02-28T15:58:05.989Z,2.00
2019-02-28T16:00:34.736Z,2.73
2019-02-28T16:03:03.062Z,2.90
2019-02-28T16:05:31.406Z,2.90
2019-02-28T16:07:59.767Z,2.67
2019-02-28T16:10:31.834Z,2.27
2019-02-28T16:12:59.765Z,2.80
2019-02-28T16:15:28.570Z,2.87
2019-02-28T16:17:56.897Z,4.37
2019-02-28T16:20:28.449Z,3.63
2019-02-28T16:22:55.432Z,4.53
2019-02-28T16:25:25.404Z,3.17
2019-02-28T16:27:54.764Z,1.60
2019-02-28T16:30:23.114Z,2.93
2019-02-28T16:32:51.469Z,3.23
2019-02-28T16:35:19.806Z,2.77
2019-02-28T16:37:48.133Z,2.87
2019-02-28T16:40:20.788Z,2.70
2019-02-28T16:42:48.446Z,3.23
2019-02-28T16:45:22.710Z,3.07
2019-02-28T16:47:51.038Z,1.20
2019-02-28T16:50:19.759Z,2.30
2019-02-28T16:52:48.165Z,2.73
2019-02-28T16:55:16.513Z,2.17
2019-02-28T16:57:47.105Z,3.73
2019-02-28T17:00:16.437Z,4.23
2019-02-28T17:02:44.837Z,3.30
2019-02-28T17:05:13.193Z,3.03
2019-02-28T17:07:43.592Z,3.90
2019-02-28T17:10:13.978Z,4.40
2019-02-28T17:12:43.967Z,4.47
2019-02-28T17:15:13.954Z,5.47
2019-02-28T17:17:46.944Z,5.43
2019-02-28T17:20:14.062Z,8.40
2019-02-28T17:22:42.393Z,6.63
2019-02-28T17:25:10.738Z,5.07
2019-02-28T17:27:41.367Z,4.90
2019-02-28T17:30:17.379Z,5.47
2019-02-28T17:32:45.709Z,5.07
2019-02-28T17:35:15.179Z,6.00
2019-02-28T17:37:43.524Z,5.57
2019-02-28T17:40:12.908Z,6.33
2019-02-28T17:42:46.369Z,7.53
2019-02-28T17:45:16.437Z,5.90
2019-02-28T17:47:49.350Z,5.73
2019-02-28T17:50:20.586Z,6.83
2019-02-28T17:52:50.558Z,5.50
2019-02-28T17:55:27.069Z,6.30
2019-02-28T17:57:57.244Z,6.03
2019-02-28T18:00:33.058Z,5.57
2019-02-28T18:03:18.225Z,6.57
2019-02-28T18:05:50.227Z,5.83
2019-02-28T18:08:38.501Z,5.30
2019-02-28T18:11:08.782Z,5.57
2019-02-28T18:13:38.746Z,6.73
2019-02-28T18:16:08.712Z,8.47
2019-02-28T18:18:44.886Z,5.13
2019-02-28T18:21:31.377Z,6.87
2019-02-28T18:24:19.621Z,7.50
2019-02-28T18:26:55.297Z,6.23
2019-02-28T18:29:32.254Z,6.77
2019-02-28T18:32:01.346Z,6.83
2019-02-28T18:34:29.932Z,7.30
2019-02-28T18:36:58.288Z,7.50
2019-02-28T18:39:26.622Z,7.53
2019-02-28T18:41:54.961Z,8.57
2019-02-28T18:44:23.619Z,8.83
2019-02-28T18:46:53.432Z,8.63
2019-02-28T18:49:21.779Z,6.77
2019-02-28T18:51:51.184Z,7.93
2019-02-28T18:54:19.526Z,9.17
2019-02-28T18:56:47.865Z,8.60
2019-02-28T18:59:16.207Z,11.43
2019-02-28T19:01:44.563Z,4.50
2019-02-28T19:04:12.902Z,8.73
2019-02-28T19:06:41.482Z,8.97
2019-02-28T19:09:17.286Z,6.97
2019-02-28T19:11:46.813Z,8.00
2019-02-28T19:14:15.229Z,5.13
2019-02-28T19:16:43.574Z,7.00
2019-02-28T19:19:11.990Z,6.33
2019-02-28T19:21:40.645Z,5.43
2019-02-28T19:24:08.982Z,6.27
2019-02-28T19:26:37.320Z,6.33
2019-02-28T19:29:05.687Z,4.40
2019-02-28T19:31:34.038Z,7.33
2019-02-28T19:34:02.381Z,6.30
2019-02-28T19:36:30.758Z,6.43
2019-02-28T19:38:59.158Z,6.77
2019-02-28T19:41:27.570Z,6.93
2019-02-28T19:43:55.995Z,6.37
2019-02-28T19:46:24.705Z,7.60
2019-02-28T19:48:53.045Z,6.73
2019-02-28T19:51:21.710Z,8.83
2019-02-28T19:53:50.053Z,6.93
2019-02-28T19:56:18.388Z,7.87
2019-02-28T19:58:46.744Z,8.67
2019-02-28T20:01:19.001Z,7.00
2019-02-28T20:03:45.144Z,8.87
2019-02-28T20:06:13.490Z,8.50
2019-02-28T20:08:41.829Z,10.60
2019-02-28T20:11:10.204Z,11.30
2019-02-28T20:13:38.610Z,7.40
2019-02-28T20:16:07.934Z,10.73
2019-02-28T20:18:36.290Z,6.90
2019-02-28T20:21:04.805Z,10.87
2019-02-28T20:23:33.162Z,9.73
2019-02-28T20:26:01.502Z,12.40
2019-02-28T20:28:29.858Z,11.20
2019-02-28T20:30:59.483Z,10.73
2019-02-28T20:33:27.839Z,10.70
2019-02-28T20:35:56.591Z,11.83
2019-02-28T20:38:24.949Z,10.43
2019-02-28T20:40:53.369Z,8.30
2019-02-28T20:43:21.724Z,11.87
2019-02-28T20:45:50.053Z,9.27
2019-02-28T20:48:18.580Z,9.63
2019-02-28T20:50:47.886Z,10.03
2019-02-28T20:53:16.237Z,5.67
2019-02-28T20:55:44.579Z,8.03
2019-02-28T20:58:13.001Z,10.27
2019-02-28T21:00:42.421Z,10.77
2019-02-28T21:03:10.780Z,10.97
2019-02-28T21:05:39.136Z,9.63
2019-02-28T21:08:07.534Z,9.00
2019-02-28T21:10:35.881Z,10.07
2019-02-28T21:13:04.219Z,8.70
2019-02-28T21:15:32.638Z,10.93
2019-02-28T21:18:01.053Z,10.10
2019-02-28T21:20:31.720Z,10.53
2019-02-28T21:23:01.535Z,8.10
2019-02-28T21:25:29.964Z,11.60
2019-02-28T21:27:58.300Z,9.17
2019-02-28T21:30:27.213Z,8.63
2019-02-28T21:32:55.724Z,11.30
2019-02-28T21:35:24.543Z,9.47
2019-02-28T21:37:53.356Z,11.70
2019-02-28T21:40:21.910Z,12.60
2019-02-28T21:42:50.263Z,12.73
2019-02-28T21:45:23.324Z,12.90
2019-02-28T21:47:51.671Z,12.90
2019-02-28T21:50:20.079Z,9.87
2019-02-28T21:52:48.500Z,11.70
2019-02-28T21:55:17.119Z,11.33
2019-02-28T21:57:46.637Z,12.47
2019-02-28T22:00:19.586Z,13.50
2019-02-28T22:02:48.214Z,10.40
2019-02-28T22:05:16.565Z,11.57
2019-02-28T22:07:44.917Z,10.57
2019-02-28T22:10:14.130Z,12.27
2019-02-28T22:12:42.486Z,12.53
2019-02-28T22:15:12.106Z,12.33
2019-02-28T22:17:40.448Z,10.77
2019-02-28T22:20:09.765Z,11.23
2019-02-28T22:22:38.109Z,11.43
2019-02-28T22:25:07.735Z,10.80
2019-02-28T22:27:36.163Z,10.73
2019-02-28T22:30:27.187Z,11.23
2019-02-28T22:32:57.178Z,10.37
2019-02-28T22:35:27.162Z,11.00
2019-02-28T22:37:55.525Z,12.07
2019-02-28T22:40:23.856Z,9.93
2019-02-28T22:42:52.215Z,12.53
2019-02-28T22:45:20.558Z,12.97
2019-02-28T22:47:48.921Z,11.10
2019-02-28T22:50:17.323Z,13.27
2019-02-28T22:52:45.674Z,13.10
2019-02-28T22:55:14.024Z,10.37
2019-02-28T22:57:42.379Z,15.33
2019-02-28T23:00:15.274Z,12.23
2019-02-28T23:02:43.990Z,12.93
2019-02-28T23:05:12.589Z,13.60
2019-02-28T23:07:41.908Z,15.80
2019-02-28T23:10:10.266Z,13.73
2019-02-28T23:12:38.601Z,12.40
2019-02-28T23:15:08.032Z,14.13
2019-02-28T23:17:36.374Z,15.00
2019-02-28T23:20:05.902Z,13.27
2019-02-28T23:22:34.238Z,13.90
2019-02-28T23:25:02.653Z,13.70
2019-02-28T23:27:30.990Z,7.33
2019-02-28T23:30:00.967Z,12.20
2019-02-28T23:32:35.138Z,15.37
2019-02-28T23:35:05.921Z,13.70
2019-02-28T23:37:34.257Z,10.60
2019-02-28T23:40:02.884Z,14.20
2019-02-28T23:42:31.570Z,14.10
2019-02-28T23:44:59.929Z,14.33
2019-02-28T23:47:28.269Z,13.43
2019-02-28T23:49:56.626Z,17.03
2019-02-28T23:52:24.977Z,14.97
2019-02-28T23:54:53.339Z,11.40
2019-02-28T23:57:21.676Z,15.53
2019-02-28T23:59:50.027Z,16.30
